createdAt,value
2019-04-01T00:01:57.847Z,4.30
2019-04-01T00:04:25.876Z,4.40
2019-04-01T00:06:53.900Z,4.50
2019-04-01T00:09:22.001Z,4.40
2019-04-01T00:11:50.102Z,4.30
2019-04-01T00:14:18.371Z,4.20
2019-04-01T00:16:46.579Z,4.20
2019-04-01T00:19:14.613Z,4.10
2019-04-01T00:21:44.583Z,4.10
2019-04-01T00:24:13.935Z,4.00
2019-04-01T00:26:42.116Z,3.90
2019-04-01T00:29:10.246Z,3.80
2019-04-01T00:31:38.401Z,3.70
2019-04-01T00:34:06.598Z,3.50
2019-04-01T00:36:35.139Z,3.40
2019-04-01T00:39:05.528Z,3.40
2019-04-01T00:41:35.148Z,3.20
2019-04-01T00:44:11.526Z,3.20
2019-04-01T00:46:39.568Z,3.30
2019-04-01T00:49:07.595Z,3.40
2019-04-01T00:51:35.503Z,3.50
2019-04-01T00:54:07.630Z,3.60
2019-04-01T00:56:35.724Z,3.60
2019-04-01T00:59:03.600Z,3.60
2019-04-01T01:01:31.629Z,3.50
2019-04-01T01:03:59.623Z,3.30
2019-04-01T01:06:28.098Z,3.40
2019-04-01T01:08:55.750Z,3.40
2019-04-01T01:11:24.211Z,3.50
2019-04-01T01:13:52.187Z,3.50
2019-04-01T01:16:19.989Z,3.50
2019-04-01T01:18:48.004Z,3.40
2019-04-01T01:21:16.172Z,3.30
2019-04-01T01:23:44.037Z,3.20
2019-04-01T01:26:12.013Z,3.20
2019-04-01T01:28:39.803Z,3.10
2019-04-01T01:31:07.517Z,3.10
2019-04-01T01:33:35.548Z,3.10
2019-04-01T01:36:03.810Z,3.00
2019-04-01T01:38:31.560Z,3.00
2019-04-01T01:40:59.703Z,2.90
2019-04-01T01:43:27.679Z,2.90
2019-04-01T01:45:59.308Z,2.80
2019-04-01T01:48:27.911Z,2.80
2019-04-01T01:50:57.308Z,2.70
2019-04-01T01:53:25.285Z,2.70
2019-04-01T01:55:53.345Z,2.60
2019-04-01T01:58:24.172Z,2.60
2019-04-01T02:00:53.619Z,2.60
2019-04-01T02:03:21.929Z,2.50
2019-04-01T02:05:50.288Z,2.60
2019-04-01T02:08:18.350Z,2.60
2019-04-01T02:10:46.606Z,2.60
2019-04-01T02:13:17.336Z,2.50
2019-04-01T02:15:45.160Z,2.50
2019-04-01T02:18:13.074Z,2.40
2019-04-01T02:20:42.729Z,2.40
2019-04-01T02:23:10.712Z,2.30
2019-04-01T02:25:39.551Z,2.20
2019-04-01T02:28:07.748Z,2.10
2019-04-01T02:30:35.904Z,2.10
2019-04-01T02:33:04.126Z,2.00
2019-04-01T02:35:32.169Z,2.00
2019-04-01T02:38:00.668Z,2.00
2019-04-01T02:40:28.739Z,1.90
2019-04-01T02:42:57.169Z,1.90
2019-04-01T02:45:25.470Z,1.90
2019-04-01T02:47:53.694Z,1.80
2019-04-01T02:50:21.920Z,1.90
2019-04-01T02:52:49.892Z,1.90
2019-04-01T02:55:17.966Z,1.90
2019-04-01T02:57:46.073Z,2.00
2019-04-01T03:00:14.510Z,2.00
2019-04-01T03:02:42.316Z,2.00
2019-04-01T03:05:12.011Z,2.00
2019-04-01T03:07:40.748Z,2.00
2019-04-01T03:10:09.049Z,1.90
2019-04-01T03:12:37.235Z,1.80
2019-04-01T03:15:06.127Z,1.80
2019-04-01T03:17:34.294Z,1.80
2019-04-01T03:20:02.485Z,1.70
2019-04-01T03:22:30.991Z,1.80
2019-04-01T03:25:00.529Z,1.70
2019-04-01T03:27:28.778Z,1.70
2019-04-01T03:29:57.203Z,1.70
2019-04-01T03:32:27.448Z,1.60
2019-04-01T03:34:58.586Z,1.50
2019-04-01T03:37:26.911Z,1.50
2019-04-01T03:39:58.305Z,1.40
2019-04-01T03:42:26.170Z,1.50
2019-04-01T03:44:55.334Z,1.50
2019-04-01T03:47:23.389Z,1.50
2019-04-01T03:49:52.399Z,1.50
2019-04-01T03:52:20.618Z,1.60
2019-04-01T03:54:48.608Z,1.70
2019-04-01T03:57:18.007Z,1.60
2019-04-01T03:59:46.158Z,1.80
2019-04-01T04:02:14.792Z,1.80
2019-04-01T04:04:43.224Z,1.90
2019-04-01T04:07:19.098Z,1.90
2019-04-01T04:09:50.939Z,1.90
2019-04-01T04:12:19.326Z,1.90
2019-04-01T04:14:51.053Z,1.90
2019-04-01T04:17:19.636Z,1.90
2019-04-01T04:20:12.330Z,2.00
2019-04-01T05:23:36.420Z,2.30
2019-04-01T05:26:05.995Z,2.40
2019-04-01T05:28:35.329Z,2.40
2019-04-01T05:31:06.023Z,2.50
2019-04-01T05:33:54.881Z,2.60
2019-04-01T05:36:16.375Z,2.60
2019-04-01T05:38:44.424Z,2.60
2019-04-01T05:41:16.194Z,2.80
2019-04-01T05:43:48.405Z,2.90
2019-04-01T05:46:16.574Z,2.90
2019-04-01T05:48:44.622Z,3.00
2019-04-01T05:51:12.677Z,3.10
2019-04-01T05:53:40.625Z,3.20
2019-04-01T05:56:08.466Z,3.20
2019-04-01T05:58:36.185Z,3.20
2019-04-01T06:01:12.414Z,3.20
2019-04-01T06:04:02.219Z,3.20
2019-04-01T06:06:33.659Z,3.20
2019-04-01T06:09:11.525Z,3.20
2019-04-01T06:28:25.014Z,3.60
2019-04-01T06:31:26.366Z,3.70
2019-04-01T06:33:58.407Z,3.80
2019-04-01T06:37:08.503Z,3.70
2019-04-01T06:40:07.815Z,3.70
2019-04-01T06:42:39.363Z,3.80
2019-04-01T06:45:44.317Z,3.70
2019-04-01T06:48:15.342Z,3.80
2019-04-01T06:51:34.491Z,3.90
2019-04-01T06:54:17.380Z,4.20
2019-04-01T06:57:23.152Z,4.30
2019-04-01T07:03:12.571Z,4.50
2019-04-01T07:05:39.337Z,4.40
2019-04-01T07:08:35.517Z,4.50
2019-04-01T07:11:02.184Z,4.40
2019-04-01T07:13:40.076Z,4.50
2019-04-01T07:16:15.514Z,4.70
2019-04-01T07:18:37.252Z,4.80
2019-04-01T07:21:05.065Z,4.90
2019-04-01T07:23:33.194Z,5.00
2019-04-01T07:26:01.438Z,5.10
2019-04-01T07:28:29.082Z,5.20
2019-04-01T07:30:56.752Z,5.30
2019-04-01T07:33:24.420Z,5.30
2019-04-01T07:35:52.110Z,5.40
2019-04-01T07:38:20.162Z,5.40
2019-04-01T07:40:48.048Z,5.50
2019-04-01T07:43:15.887Z,5.60
2019-04-01T07:45:43.770Z,5.70
2019-04-01T07:48:12.769Z,5.80
2019-04-01T07:50:40.719Z,5.80
2019-04-01T07:53:08.400Z,5.70
2019-04-01T07:55:36.554Z,5.60
2019-04-01T07:58:04.340Z,5.40
2019-04-01T08:00:33.760Z,5.30
2019-04-01T08:03:01.622Z,5.30
2019-04-01T08:05:29.368Z,5.30
2019-04-01T08:07:57.341Z,5.40
2019-04-01T08:10:24.906Z,5.60
2019-04-01T08:12:52.729Z,5.70
2019-04-01T08:15:21.531Z,5.70
2019-04-01T08:17:49.313Z,5.50
2019-04-01T08:20:16.954Z,5.20
2019-04-01T08:22:44.628Z,5.20
2019-04-01T08:25:12.334Z,5.40
2019-04-01T08:27:40.049Z,5.40
2019-04-01T08:30:08.209Z,5.40
2019-04-01T08:32:35.906Z,5.50
2019-04-01T08:35:04.266Z,5.60
2019-04-01T08:37:32.093Z,5.50
2019-04-01T08:40:00.150Z,5.50
2019-04-01T08:42:28.005Z,5.60
2019-04-01T08:44:55.748Z,5.60
2019-04-01T08:47:23.612Z,5.80
2019-04-01T08:49:51.495Z,5.90
2019-04-01T08:52:19.450Z,6.00
2019-04-01T08:54:47.032Z,6.00
2019-04-01T08:57:14.817Z,6.00
2019-04-01T08:59:42.844Z,6.00
2019-04-01T09:02:17.878Z,6.00
2019-04-01T09:04:40.295Z,5.70
2019-04-01T09:07:07.974Z,5.90
2019-04-01T09:09:36.821Z,5.80
2019-04-01T09:12:04.453Z,5.80
2019-04-01T09:14:32.345Z,5.80
2019-04-01T09:17:00.385Z,5.90
2019-04-01T09:19:28.023Z,6.10
2019-04-01T09:21:55.740Z,6.10
2019-04-01T09:24:23.697Z,6.20
2019-04-01T09:26:51.445Z,6.30
2019-04-01T09:29:19.253Z,6.60
2019-04-01T09:31:47.204Z,6.80
2019-04-01T09:34:14.960Z,6.90
2019-04-01T09:36:42.909Z,7.10
2019-04-01T09:39:10.733Z,7.20
2019-04-01T09:41:38.411Z,7.30
2019-04-01T09:44:06.108Z,7.20
2019-04-01T09:46:35.829Z,7.10
2019-04-01T09:49:03.516Z,7.00
2019-04-01T09:51:31.240Z,6.90
2019-04-01T09:53:58.960Z,6.60
2019-04-01T09:56:26.661Z,6.50
2019-04-01T09:58:54.428Z,6.50
2019-04-01T10:01:21.930Z,6.50
2019-04-01T10:03:49.694Z,6.50
2019-04-01T10:06:17.303Z,6.50
2019-04-01T10:08:44.995Z,6.60
2019-04-01T10:11:13.102Z,6.60
2019-04-01T10:13:40.898Z,6.60
2019-04-01T10:16:08.652Z,6.80
2019-04-01T10:18:36.349Z,6.90
2019-04-01T10:21:03.892Z,7.00
2019-04-01T10:23:31.562Z,7.30
2019-04-01T10:25:59.265Z,7.40
2019-04-01T10:28:26.857Z,7.50
2019-04-01T10:30:55.098Z,7.50
2019-04-01T10:33:22.765Z,7.50
2019-04-01T10:35:50.401Z,7.40
2019-04-01T10:38:18.131Z,7.50
2019-04-01T10:40:45.897Z,7.60
2019-04-01T10:43:13.644Z,7.70
2019-04-01T10:45:41.354Z,7.60
2019-04-01T10:48:09.086Z,7.80
2019-04-01T10:50:37.803Z,7.90
2019-04-01T10:53:05.676Z,8.00
2019-04-01T10:55:33.491Z,8.00
2019-04-01T10:58:01.278Z,8.20
2019-04-01T11:00:29.091Z,8.20
2019-04-01T11:02:56.730Z,8.20
2019-04-01T11:05:24.410Z,8.10
2019-04-01T11:07:52.155Z,7.90
2019-04-01T11:10:19.976Z,7.70
2019-04-01T11:12:47.696Z,7.40
2019-04-01T11:15:16.194Z,7.70
2019-04-01T11:17:44.290Z,7.80
2019-04-01T11:20:13.034Z,7.90
2019-04-01T11:22:40.846Z,7.90
2019-04-01T11:25:08.879Z,7.70
2019-04-01T11:27:36.498Z,7.70
2019-04-01T11:30:04.782Z,7.80
2019-04-01T11:32:32.591Z,7.80
2019-04-01T11:35:00.356Z,7.90
2019-04-01T11:37:28.117Z,8.00
2019-04-01T11:39:55.868Z,8.10
2019-04-01T11:42:23.541Z,8.20
2019-04-01T11:44:52.528Z,8.20
2019-04-01T11:47:22.201Z,8.20
2019-04-01T11:49:50.004Z,8.40
2019-04-01T11:52:17.745Z,8.50
2019-04-01T11:54:45.366Z,8.40
2019-04-01T11:57:12.959Z,8.40
2019-04-01T11:59:40.919Z,8.40
2019-04-01T12:02:08.661Z,8.60
2019-04-01T12:04:36.319Z,8.60
2019-04-01T12:07:04.035Z,8.70
2019-04-01T12:09:31.718Z,8.50
2019-04-01T12:11:59.434Z,8.40
2019-04-01T12:14:27.561Z,8.50
2019-04-01T12:16:55.283Z,8.20
2019-04-01T12:19:23.017Z,8.00
2019-04-01T12:21:50.628Z,7.90
2019-04-01T12:24:18.935Z,8.00
2019-04-01T12:26:47.175Z,8.10
2019-04-01T12:29:17.866Z,8.20
2019-04-01T12:31:45.700Z,8.20
2019-04-01T12:34:13.420Z,8.30
2019-04-01T12:36:41.261Z,8.40
2019-04-01T12:39:08.865Z,8.50
2019-04-01T12:41:36.399Z,8.50
2019-04-01T12:44:04.143Z,8.50
2019-04-01T12:46:31.833Z,8.40
2019-04-01T12:48:59.496Z,8.50
2019-04-01T12:51:27.350Z,8.80
2019-04-01T12:53:54.953Z,8.80
2019-04-01T12:56:22.557Z,8.90
2019-04-01T12:58:50.037Z,8.70
2019-04-01T13:01:17.624Z,8.70
2019-04-01T13:03:52.562Z,8.80
2019-04-01T13:06:20.120Z,8.80
2019-04-01T13:08:47.861Z,8.70
2019-04-01T13:11:15.578Z,8.70
2019-04-01T13:13:43.882Z,8.50
2019-04-01T13:16:12.811Z,8.70
2019-04-01T13:18:40.599Z,8.80
2019-04-01T13:21:08.545Z,8.90
2019-04-01T13:23:36.835Z,8.90
2019-04-01T13:26:05.000Z,9.00
2019-04-01T13:28:32.900Z,9.00
2019-04-01T13:31:00.802Z,8.90
2019-04-01T13:33:28.474Z,9.00
2019-04-01T13:35:56.157Z,9.10
2019-04-01T13:38:23.892Z,8.90
2019-04-01T13:40:51.575Z,9.00
2019-04-01T13:43:19.616Z,8.80
2019-04-01T13:45:47.823Z,8.90
2019-04-01T13:48:16.037Z,9.00
2019-04-01T13:50:43.845Z,9.20
2019-04-01T13:53:12.137Z,9.40
2019-04-01T13:55:40.042Z,9.40
2019-04-01T13:58:08.357Z,9.30
2019-04-01T14:00:36.651Z,9.60
2019-04-01T14:03:04.445Z,9.60
2019-04-01T14:05:32.790Z,9.70
2019-04-01T14:08:05.941Z,9.20
2019-04-01T14:10:33.529Z,9.10
2019-04-01T14:13:01.971Z,9.20
2019-04-01T14:15:29.859Z,9.10
2019-04-01T14:17:57.880Z,8.90
2019-04-01T14:20:25.724Z,8.90
2019-04-01T14:22:56.065Z,8.90
2019-04-01T14:25:24.454Z,9.00
2019-04-01T14:27:52.939Z,9.00
2019-04-01T14:30:21.050Z,9.10
2019-04-01T14:32:49.027Z,9.40
2019-04-01T14:35:16.939Z,9.50
2019-04-01T14:37:44.678Z,9.40
2019-04-01T14:40:12.643Z,9.30
2019-04-01T14:42:40.647Z,9.30
2019-04-01T14:45:11.488Z,9.40
2019-04-01T14:47:55.872Z,9.70
2019-04-01T14:50:09.348Z,9.70
2019-04-01T14:52:37.408Z,9.30
2019-04-01T14:55:06.338Z,9.10
2019-04-01T14:57:34.336Z,8.90
2019-04-01T15:00:07.815Z,8.70
2019-04-01T15:02:35.676Z,8.60
2019-04-01T15:05:04.974Z,8.50
2019-04-01T15:07:33.079Z,8.50
2019-04-01T15:10:04.767Z,8.60
2019-04-01T15:12:32.965Z,8.50
2019-04-01T15:15:00.834Z,8.50
2019-04-01T15:17:31.716Z,8.50
2019-04-01T15:19:59.493Z,8.60
2019-04-01T15:22:27.317Z,8.50
2019-04-01T15:24:55.160Z,8.50
2019-04-01T15:27:23.088Z,8.50
2019-04-01T15:29:50.991Z,8.50
2019-04-01T15:32:18.815Z,8.30
2019-04-01T15:34:46.618Z,8.50
2019-04-01T15:37:14.453Z,8.40
2019-04-01T15:39:42.686Z,8.40
2019-04-01T15:42:14.124Z,8.40
2019-04-01T15:44:44.264Z,8.40
2019-04-01T15:47:12.024Z,8.40
2019-04-01T15:49:40.235Z,8.40
2019-04-01T15:52:08.436Z,8.40
2019-04-01T15:54:36.414Z,8.30
2019-04-01T15:57:04.309Z,8.30
2019-04-01T15:59:32.102Z,8.30
2019-04-01T16:02:02.647Z,8.20
2019-04-01T16:04:30.289Z,8.10
2019-04-01T16:07:00.070Z,8.30
2019-04-01T16:09:28.652Z,8.30
2019-04-01T16:11:56.616Z,8.30
2019-04-01T16:14:24.412Z,8.40
2019-04-01T16:16:52.770Z,8.50
2019-04-01T16:19:20.635Z,8.60
2019-04-01T16:21:48.300Z,8.60
2019-04-01T16:24:16.287Z,8.50
2019-04-01T16:26:45.693Z,8.40
2019-04-01T16:29:15.369Z,8.30
2019-04-01T16:31:43.301Z,8.30
2019-04-01T16:34:11.247Z,8.30
2019-04-01T16:36:40.185Z,8.40
2019-04-01T16:39:08.594Z,8.40
2019-04-01T16:41:36.746Z,8.10
2019-04-01T16:44:07.393Z,8.30
2019-04-01T16:46:35.861Z,8.10
2019-04-01T16:49:07.721Z,8.00
2019-04-01T16:51:35.783Z,7.90
2019-04-01T16:54:03.810Z,7.80
2019-04-01T16:56:31.742Z,7.70
2019-04-01T16:59:31.867Z,7.60
2019-04-01T17:01:59.714Z,7.50
2019-04-01T17:04:30.560Z,7.50
2019-04-01T17:07:23.491Z,7.40
2019-04-01T17:10:05.447Z,7.30
2019-04-01T17:12:45.724Z,7.30
2019-04-01T17:15:17.817Z,7.30
2019-04-01T17:18:01.881Z,7.00
2019-04-01T17:20:41.073Z,7.30
2019-04-01T17:23:09.054Z,7.00
2019-04-01T17:25:36.788Z,7.20
2019-04-01T17:28:04.664Z,7.20
2019-04-01T17:30:32.726Z,7.30
2019-04-01T17:33:03.570Z,7.00
2019-04-01T17:35:59.765Z,6.90
2019-04-01T17:38:27.732Z,6.90
2019-04-01T17:41:19.086Z,6.80
2019-04-01T17:43:50.041Z,6.70
2019-04-01T17:46:26.346Z,6.70
2019-04-01T17:49:13.558Z,6.70
2019-04-01T17:51:47.435Z,6.60
2019-04-01T17:58:26.793Z,6.60
2019-04-01T18:00:56.743Z,6.30
2019-04-01T18:03:27.744Z,6.20
2019-04-01T18:05:55.622Z,6.30
2019-04-01T18:08:23.640Z,6.00
2019-04-01T18:10:51.475Z,5.90
2019-04-01T18:13:22.555Z,5.80
2019-04-01T18:15:50.540Z,5.70
2019-04-01T18:18:26.923Z,5.70
2019-04-01T18:20:50.957Z,5.70
2019-04-01T18:29:15.156Z,5.60
2019-04-01T18:32:15.917Z,5.70
2019-04-01T18:34:43.856Z,5.70
2019-04-01T18:37:16.965Z,5.20
2019-04-01T18:39:48.322Z,5.30
2019-04-01T18:47:38.670Z,5.10
2019-04-01T18:50:05.644Z,5.00
2019-04-01T18:52:33.579Z,5.10
2019-04-01T18:55:02.189Z,4.60
2019-04-01T18:58:05.793Z,4.60
2019-04-01T19:00:33.537Z,4.40
2019-04-01T19:03:01.661Z,4.80
2019-04-01T19:05:30.240Z,4.90
2019-04-01T19:07:58.266Z,4.80
2019-04-01T19:10:26.229Z,4.70
2019-04-01T19:13:05.216Z,4.60
2019-04-01T19:15:27.710Z,4.50
2019-04-01T19:17:56.052Z,4.40
2019-04-01T19:20:24.229Z,4.30
2019-04-01T19:22:52.230Z,4.40
2019-04-01T19:25:23.230Z,4.50
2019-04-01T19:27:50.905Z,4.30
2019-04-01T19:30:18.886Z,4.40
2019-04-01T19:32:47.352Z,4.40
2019-04-01T19:36:44.277Z,4.40
2019-04-01T19:43:36.264Z,4.20
2019-04-01T19:46:04.300Z,4.40
2019-04-01T19:54:15.652Z,4.60
2019-04-01T19:57:56.023Z,4.50
2019-04-01T20:00:28.246Z,4.70
2019-04-01T20:04:01.611Z,4.50
2019-04-01T20:10:33.376Z,4.30
2019-04-01T20:13:09.277Z,4.40
2019-04-01T20:15:38.692Z,4.50
2019-04-01T20:18:07.825Z,4.30
2019-04-01T20:20:36.212Z,4.20
2019-04-01T20:23:04.338Z,4.00
2019-04-01T20:25:32.175Z,3.90
2019-04-01T20:28:19.765Z,3.90
2019-04-01T20:30:47.603Z,3.90
2019-04-01T20:33:20.683Z,4.00
2019-04-01T20:35:54.473Z,3.90
2019-04-01T20:42:03.149Z,4.20
2019-04-01T20:44:31.372Z,4.00
2019-04-01T20:52:17.976Z,3.90
2019-04-01T20:55:20.356Z,4.00
2019-04-01T20:57:51.121Z,3.80
2019-04-01T21:21:27.760Z,3.20
2019-04-01T21:45:26.385Z,3.30
2019-04-01T21:48:21.341Z,3.20
2019-04-01T21:50:49.549Z,3.00
2019-04-01T21:53:18.458Z,2.90
2019-04-01T21:55:46.806Z,2.70
2019-04-01T21:58:17.597Z,2.60
2019-04-01T22:00:58.585Z,2.30
2019-04-01T22:03:26.735Z,2.40
2019-04-01T22:05:57.028Z,2.60
2019-04-01T22:08:25.424Z,2.60
2019-04-01T22:10:56.776Z,2.60
2019-04-01T22:13:24.836Z,2.70
2019-04-01T22:15:53.541Z,2.60
2019-04-01T22:18:21.374Z,3.00
2019-04-01T22:21:10.235Z,3.00
2019-04-01T22:23:39.461Z,2.90
2019-04-01T22:26:07.328Z,3.00
2019-04-01T22:28:44.147Z,3.00
2019-04-01T22:31:12.036Z,3.00
2019-04-01T22:33:40.203Z,2.90
2019-04-01T22:36:11.465Z,3.00
2019-04-01T22:38:39.878Z,3.00
2019-04-01T22:41:10.561Z,3.00
2019-04-01T22:43:38.395Z,2.90
2019-04-01T22:46:06.272Z,3.00
2019-04-01T22:48:52.028Z,2.90
2019-04-01T22:51:26.574Z,2.90
2019-04-01T22:54:00.177Z,3.00
2019-04-01T22:56:43.493Z,3.00
2019-04-01T22:59:42.486Z,3.00
2019-04-01T23:02:13.216Z,3.00
2019-04-01T23:04:41.368Z,2.90
2019-04-01T23:07:28.330Z,2.80
2019-04-01T23:09:57.937Z,2.90
2019-04-01T23:12:38.306Z,2.90
2019-04-01T23:15:08.215Z,2.70
2019-04-01T23:17:38.734Z,2.80
2019-04-01T23:20:09.973Z,2.80
2019-04-01T23:22:40.481Z,2.80
2019-04-01T23:25:08.530Z,2.80
2019-04-01T23:27:38.064Z,2.80
2019-04-01T23:30:07.781Z,2.90
2019-04-01T23:32:41.612Z,2.90
2019-04-01T23:35:12.330Z,3.00
2019-04-01T23:37:40.608Z,2.80
2019-04-01T23:40:08.526Z,2.80
2019-04-01T23:42:38.103Z,2.80
2019-04-01T23:45:08.184Z,2.80
2019-04-01T23:47:36.278Z,2.70
2019-04-01T23:50:04.866Z,2.60
2019-04-01T23:52:33.191Z,2.60
2019-04-01T23:55:02.590Z,2.60
2019-04-01T23:57:35.338Z,2.60
